createdAt,value
2019-06-08T00:00:59.883Z,69.14
2019-06-08T00:02:04.116Z,68.95
2019-06-08T00:03:07.979Z,68.81
2019-06-08T00:04:12.934Z,68.87
2019-06-08T00:05:16.951Z,68.71
2019-06-08T00:06:23.229Z,68.42
2019-06-08T00:07:26.790Z,68.10
2019-06-08T00:08:31.010Z,67.94
2019-06-08T00:09:34.726Z,67.97
2019-06-08T00:10:38.915Z,68.00
2019-06-08T00:11:42.543Z,67.94
2019-06-08T00:12:46.702Z,67.96
2019-06-08T00:13:50.331Z,67.74
2019-06-08T00:14:54.561Z,67.53
2019-06-08T00:15:58.165Z,67.59
2019-06-08T00:17:02.327Z,67.69
2019-06-08T00:18:05.947Z,68.29
2019-06-08T00:19:10.086Z,68.49
2019-06-08T00:20:15.759Z,68.59
2019-06-08T00:21:20.223Z,68.87
2019-06-08T00:22:24.004Z,68.85
2019-06-08T00:23:28.102Z,68.82
2019-06-08T00:24:31.983Z,68.80
2019-06-08T00:25:36.190Z,68.73
2019-06-08T00:26:39.714Z,68.67
2019-06-08T00:27:43.810Z,68.68
2019-06-08T00:28:47.358Z,68.75
2019-06-08T00:29:51.521Z,68.83
2019-06-08T00:30:55.030Z,68.88
2019-06-08T00:31:59.196Z,68.84
2019-06-08T00:33:02.822Z,68.78
2019-06-08T00:34:07.383Z,68.74
2019-06-08T00:35:11.118Z,68.72
2019-06-08T00:36:15.185Z,68.75
2019-06-08T00:37:18.862Z,68.87
2019-06-08T00:38:23.094Z,68.97
2019-06-08T00:39:26.734Z,69.08
2019-06-08T00:40:31.017Z,69.18
2019-06-08T00:41:34.654Z,69.29
2019-06-08T00:42:38.759Z,69.38
2019-06-08T00:43:42.320Z,69.63
2019-06-08T00:44:46.479Z,69.74
2019-06-08T00:45:50.108Z,69.68
2019-06-08T00:46:54.338Z,69.69
2019-06-08T00:47:58.004Z,69.94
2019-06-08T00:49:02.207Z,70.09
2019-06-08T00:50:06.950Z,70.26
2019-06-08T00:51:11.279Z,70.30
2019-06-08T00:52:15.292Z,70.32
2019-06-08T00:53:20.134Z,70.34
2019-06-08T00:54:25.808Z,70.42
2019-06-08T00:55:30.075Z,70.39
2019-06-08T00:56:33.617Z,70.35
2019-06-08T00:57:37.852Z,70.30
2019-06-08T00:58:41.461Z,70.25
2019-06-08T00:59:45.530Z,70.29
2019-06-08T01:00:49.152Z,70.49
2019-06-08T01:01:53.370Z,70.45
2019-06-08T01:02:57.007Z,70.53
2019-06-08T01:04:01.248Z,70.43
2019-06-08T01:05:07.080Z,70.37
2019-06-08T01:06:11.335Z,70.31
2019-06-08T01:07:14.974Z,70.49
2019-06-08T01:08:20.677Z,70.46
2019-06-08T01:09:24.584Z,70.56
2019-06-08T01:10:29.706Z,70.57
2019-06-08T01:11:33.408Z,70.71
2019-06-08T01:12:37.635Z,70.73
2019-06-08T01:13:41.257Z,70.72
2019-06-08T01:14:45.864Z,70.67
2019-06-08T01:15:49.502Z,70.62
2019-06-08T01:16:53.696Z,70.73
2019-06-08T01:18:02.667Z,70.79
2019-06-08T01:19:03.269Z,70.83
2019-06-08T01:20:08.031Z,70.77
2019-06-08T01:21:12.100Z,70.65
2019-06-08T01:22:15.638Z,70.59
2019-06-08T01:23:19.870Z,70.77
2019-06-08T01:24:23.705Z,70.77
2019-06-08T01:25:28.430Z,70.76
2019-06-08T01:26:32.059Z,71.08
2019-06-08T01:27:36.323Z,71.21
2019-06-08T01:28:39.886Z,71.46
2019-06-08T01:29:44.554Z,71.59
2019-06-08T01:30:48.193Z,71.62
2019-06-08T01:31:52.288Z,71.64
2019-06-08T01:32:56.228Z,71.65
2019-06-08T01:34:00.465Z,71.66
2019-06-08T01:35:04.710Z,71.86
2019-06-08T01:36:09.094Z,72.14
2019-06-08T01:37:12.678Z,71.99
2019-06-08T01:38:16.858Z,72.26
2019-06-08T01:39:21.119Z,72.55
2019-06-08T01:40:25.906Z,72.58
2019-06-08T01:41:29.710Z,72.33
2019-06-08T01:42:33.838Z,72.41
2019-06-08T01:43:37.424Z,72.60
2019-06-08T01:44:41.691Z,72.72
2019-06-08T01:45:45.315Z,72.69
2019-06-08T01:46:49.482Z,72.55
2019-06-08T01:47:53.037Z,72.55
2019-06-08T01:48:57.286Z,72.73
2019-06-08T01:50:00.949Z,72.75
2019-06-08T01:51:05.990Z,72.96
2019-06-08T01:52:09.594Z,73.02
2019-06-08T01:53:14.137Z,72.96
2019-06-08T01:54:17.722Z,73.10
2019-06-08T01:55:23.003Z,73.20
2019-06-08T01:56:27.091Z,73.21
2019-06-08T01:57:31.594Z,73.24
2019-06-08T01:58:35.346Z,73.26
2019-06-08T01:59:39.570Z,73.27
2019-06-08T02:00:43.198Z,73.41
2019-06-08T02:01:47.469Z,73.36
2019-06-08T02:02:51.392Z,73.43
2019-06-08T02:03:55.545Z,73.42
2019-06-08T02:04:59.345Z,73.40
2019-06-08T02:06:03.741Z,73.36
2019-06-08T02:07:07.438Z,73.51
2019-06-08T02:08:11.672Z,73.54
2019-06-08T02:09:15.305Z,73.60
2019-06-08T02:10:21.335Z,73.71
2019-06-08T02:11:24.920Z,73.78
2019-06-08T02:12:29.100Z,73.74
2019-06-08T02:13:33.147Z,73.75
2019-06-08T02:14:37.473Z,73.76
2019-06-08T02:15:41.121Z,73.83
2019-06-08T02:16:45.262Z,73.97
2019-06-08T02:17:48.944Z,74.06
2019-06-08T02:18:53.159Z,74.13
2019-06-08T02:19:56.641Z,74.16
2019-06-08T02:21:00.881Z,74.17
2019-06-08T02:22:04.604Z,74.12
2019-06-08T02:23:08.855Z,74.02
2019-06-08T02:24:12.488Z,74.02
2019-06-08T02:25:18.331Z,74.06
2019-06-08T02:26:21.958Z,74.06
2019-06-08T02:27:27.243Z,74.09
2019-06-08T02:28:31.562Z,74.31
2019-06-08T02:29:35.879Z,74.29
2019-06-08T02:30:41.966Z,74.32
2019-06-08T02:31:47.981Z,74.32
2019-06-08T02:32:50.736Z,74.39
2019-06-08T02:33:54.986Z,74.35
2019-06-08T02:34:58.887Z,74.35
2019-06-08T02:36:02.842Z,74.35
2019-06-08T02:37:06.467Z,74.32
2019-06-08T02:38:10.698Z,74.47
2019-06-08T02:39:14.385Z,74.55
2019-06-08T02:40:19.009Z,74.58
2019-06-08T02:41:22.605Z,74.67
2019-06-08T02:42:28.511Z,74.73
2019-06-08T02:43:33.344Z,74.78
2019-06-08T02:44:37.737Z,74.81
2019-06-08T02:45:41.938Z,74.82
2019-06-08T02:46:46.109Z,74.91
2019-06-08T02:47:49.734Z,74.86
2019-06-08T02:49:03.331Z,74.80
2019-06-08T02:49:59.263Z,74.79
2019-06-08T02:51:03.990Z,74.68
2019-06-08T02:52:07.636Z,74.71
2019-06-08T02:53:12.562Z,74.68
2019-06-08T02:54:16.485Z,74.62
2019-06-08T02:55:20.679Z,74.56
2019-06-08T02:56:25.218Z,74.64
2019-06-08T02:57:33.207Z,74.72
2019-06-08T02:58:40.352Z,74.77
2019-06-08T02:59:44.554Z,74.73
2019-06-08T03:00:50.069Z,74.68
2019-06-08T03:01:56.524Z,74.61
2019-06-08T03:03:01.147Z,74.58
2019-06-08T03:04:05.702Z,74.58
2019-06-08T03:05:09.546Z,74.63
2019-06-08T03:06:16.165Z,74.59
2019-06-08T03:07:22.498Z,74.47
2019-06-08T03:08:29.390Z,74.45
2019-06-08T03:09:34.779Z,74.75
2019-06-08T03:10:41.361Z,74.89
2019-06-08T03:11:47.032Z,74.74
2019-06-08T03:12:53.205Z,74.94
2019-06-08T03:13:58.296Z,74.79
2019-06-08T03:15:04.497Z,74.71
2019-06-08T03:16:08.110Z,75.12
2019-06-08T03:17:12.317Z,75.16
2019-06-08T03:18:16.157Z,75.12
2019-06-08T03:19:22.668Z,75.28
2019-06-08T03:20:25.911Z,75.37
2019-06-08T03:21:31.389Z,75.24
2019-06-08T03:22:37.156Z,75.03
2019-06-08T03:23:42.915Z,74.86
2019-06-08T03:24:46.398Z,74.87
2019-06-08T03:25:52.878Z,74.84
2019-06-08T03:26:56.265Z,74.89
2019-06-08T03:28:00.337Z,74.93
2019-06-08T03:29:03.987Z,74.69
2019-06-08T03:30:17.639Z,74.55
2019-06-08T03:31:16.697Z,74.80
2019-06-08T03:32:20.861Z,74.88
2019-06-08T03:33:24.498Z,74.93
2019-06-08T03:34:28.644Z,74.96
2019-06-08T03:35:34.880Z,74.97
2019-06-08T03:36:43.860Z,74.97
2019-06-08T03:37:44.432Z,74.83
2019-06-08T03:38:48.808Z,74.77
2019-06-08T03:39:52.307Z,74.93
2019-06-08T03:40:56.545Z,74.90
2019-06-08T03:42:00.237Z,74.93
2019-06-08T03:43:04.441Z,74.97
2019-06-08T03:44:08.069Z,75.01
2019-06-08T03:45:12.704Z,74.88
2019-06-08T03:46:16.351Z,74.88
2019-06-08T03:47:20.589Z,74.93
2019-06-08T03:48:24.604Z,74.96
2019-06-08T03:49:41.305Z,74.96
2019-06-08T03:50:35.532Z,74.99
2019-06-08T03:51:43.632Z,74.98
2019-06-08T03:52:46.275Z,74.88
2019-06-08T03:53:50.706Z,74.90
2019-06-08T03:54:54.718Z,74.89
2019-06-08T03:55:58.856Z,75.02
2019-06-08T03:57:02.426Z,75.09
2019-06-08T03:58:06.790Z,75.15
2019-06-08T03:59:10.351Z,75.06
2019-06-08T04:00:15.362Z,74.95
2019-06-08T04:01:19.115Z,74.87
2019-06-08T04:02:23.314Z,74.82
2019-06-08T04:03:26.935Z,74.62
2019-06-08T04:04:31.147Z,74.51
2019-06-08T04:05:34.757Z,74.51
2019-06-08T04:06:39.875Z,74.44
2019-06-08T04:07:45.882Z,74.38
2019-06-08T04:08:50.018Z,74.21
2019-06-08T04:09:53.695Z,74.48
2019-06-08T04:10:57.817Z,74.54
2019-06-08T04:12:01.568Z,74.43
2019-06-08T04:13:05.771Z,74.58
2019-06-08T04:14:09.457Z,74.61
2019-06-08T04:15:14.181Z,74.65
2019-06-08T04:16:19.387Z,74.62
2019-06-08T04:17:23.831Z,74.72
2019-06-08T04:18:27.477Z,74.67
2019-06-08T04:19:31.659Z,74.58
2019-06-08T04:20:35.311Z,75.17
2019-06-08T04:21:40.263Z,76.38
2019-06-08T04:22:47.121Z,76.39
2019-06-08T04:23:51.612Z,76.35
2019-06-08T04:24:55.308Z,75.73
2019-06-08T04:25:59.454Z,75.23
2019-06-08T04:27:03.015Z,75.26
2019-06-08T04:28:07.399Z,76.25
2019-06-08T04:29:10.971Z,76.19
2019-06-08T04:30:15.904Z,75.54
2019-06-08T04:31:19.512Z,75.42
2019-06-08T04:32:23.717Z,75.15
2019-06-08T04:33:27.346Z,75.33
2019-06-08T04:34:31.493Z,75.53
2019-06-08T04:35:35.365Z,75.39
2019-06-08T04:36:41.239Z,75.05
2019-06-08T04:37:47.000Z,75.14
2019-06-08T04:38:51.384Z,74.22
2019-06-08T04:39:54.957Z,73.96
2019-06-08T04:40:59.047Z,73.95
2019-06-08T04:42:02.713Z,74.15
2019-06-08T04:43:07.015Z,74.42
2019-06-08T04:44:10.644Z,74.73
2019-06-08T04:45:15.261Z,74.75
2019-06-08T04:46:18.883Z,75.11
2019-06-08T04:47:23.209Z,74.97
2019-06-08T04:48:26.846Z,74.79
2019-06-08T04:49:31.125Z,74.90
2019-06-08T04:50:34.753Z,75.06
2019-06-08T04:51:40.608Z,74.66
2019-06-08T04:52:44.998Z,74.11
2019-06-08T04:53:49.907Z,74.15
2019-06-08T04:54:53.608Z,74.29
2019-06-08T04:56:01.242Z,74.21
2019-06-08T04:57:04.895Z,74.39
2019-06-08T04:58:09.080Z,74.35
2019-06-08T04:59:12.711Z,74.51
2019-06-08T05:00:17.127Z,74.24
2019-06-08T05:01:20.745Z,74.21
2019-06-08T05:02:24.854Z,74.21
2019-06-08T05:03:28.454Z,74.02
2019-06-08T05:04:32.620Z,74.10
2019-06-08T05:05:36.750Z,73.96
2019-06-08T05:06:41.070Z,73.88
2019-06-08T05:07:46.443Z,73.73
2019-06-08T05:08:53.572Z,73.79
2019-06-08T05:09:58.780Z,73.85
2019-06-08T05:11:04.016Z,73.78
2019-06-08T05:12:07.707Z,74.01
2019-06-08T05:13:11.933Z,74.17
2019-06-08T05:14:15.819Z,74.07
2019-06-08T05:15:20.030Z,73.48
2019-06-08T05:16:23.688Z,73.55
2019-06-08T05:17:27.843Z,73.77
2019-06-08T05:18:31.399Z,73.40
2019-06-08T05:19:35.796Z,74.18
2019-06-08T05:20:42.090Z,74.04
2019-06-08T05:21:45.519Z,73.93
2019-06-08T05:22:49.794Z,74.10
2019-06-08T05:23:58.586Z,73.89
2019-06-08T05:24:59.715Z,73.58
2019-06-08T05:26:03.794Z,73.82
2019-06-08T05:27:07.437Z,73.69
2019-06-08T05:28:11.649Z,73.87
2019-06-08T05:29:15.295Z,73.77
2019-06-08T05:30:20.315Z,73.76
2019-06-08T05:31:23.965Z,73.90
2019-06-08T05:32:28.531Z,73.98
2019-06-08T05:33:32.100Z,74.32
2019-06-08T05:34:36.204Z,74.27
2019-06-08T05:35:39.872Z,73.98
2019-06-08T05:36:45.389Z,74.06
2019-06-08T05:37:49.798Z,74.22
2019-06-08T05:38:53.980Z,73.91
2019-06-08T05:39:57.620Z,74.18
2019-06-08T05:41:01.815Z,74.01
2019-06-08T05:42:05.563Z,73.91
2019-06-08T05:43:09.705Z,73.74
2019-06-08T05:44:15.556Z,73.09
2019-06-08T05:45:19.805Z,73.09
2019-06-08T05:46:23.494Z,72.95
2019-06-08T05:47:27.642Z,73.04
2019-06-08T05:48:31.169Z,72.93
2019-06-08T05:49:35.450Z,72.79
2019-06-08T05:50:55.899Z,72.56
2019-06-08T05:51:45.832Z,72.32
2019-06-08T05:52:50.340Z,72.01
2019-06-08T05:53:54.614Z,71.80
2019-06-08T05:54:58.181Z,71.90
2019-06-08T05:56:02.320Z,71.52
2019-06-08T05:57:05.984Z,71.12
2019-06-08T05:58:10.216Z,71.07
2019-06-08T05:59:14.200Z,71.07
2019-06-08T06:00:18.815Z,71.18
2019-06-08T06:01:22.446Z,71.10
2019-06-08T06:02:27.317Z,70.93
2019-06-08T06:03:30.937Z,70.98
2019-06-08T06:04:36.211Z,71.11
2019-06-08T06:05:40.245Z,71.17
2019-06-08T06:06:44.635Z,71.06
2019-06-08T06:07:49.034Z,71.47
2019-06-08T06:08:54.417Z,71.36
2019-06-08T06:10:02.264Z,70.65
2019-06-08T06:11:06.490Z,70.06
2019-06-08T06:12:20.982Z,69.88
2019-06-08T06:13:25.192Z,69.54
2019-06-08T06:14:31.631Z,69.07
2019-06-08T06:15:35.885Z,68.69
2019-06-08T06:16:40.877Z,68.45
2019-06-08T06:17:48.431Z,68.38
2019-06-08T06:18:52.790Z,67.87
2019-06-08T06:19:57.010Z,67.98
2019-06-08T06:21:10.958Z,68.13
2019-06-08T06:22:08.544Z,67.42
2019-06-08T06:23:12.220Z,67.17
2019-06-08T06:24:16.461Z,66.68
2019-06-08T06:25:20.055Z,66.36
2019-06-08T06:26:24.283Z,65.82
2019-06-08T06:27:28.292Z,65.92
2019-06-08T06:28:32.549Z,65.69
2019-06-08T06:29:36.202Z,65.28
2019-06-08T06:30:41.571Z,64.49
2019-06-08T06:32:14.384Z,63.76
2019-06-08T06:33:18.402Z,63.81
2019-06-08T06:34:22.081Z,63.89
2019-06-08T06:35:26.292Z,63.70
2019-06-08T06:36:29.868Z,63.49
2019-06-08T06:37:34.132Z,64.24
2019-06-08T06:38:37.700Z,63.55
2019-06-08T06:39:42.017Z,63.23
2019-06-08T06:40:45.959Z,62.57
2019-06-08T06:41:50.211Z,62.16
2019-06-08T06:42:56.652Z,62.05
2019-06-08T06:44:02.396Z,61.75
2019-06-08T06:45:15.115Z,61.53
2019-06-08T06:46:23.697Z,61.70
2019-06-08T06:47:27.256Z,61.63
2019-06-08T06:48:31.487Z,61.11
2019-06-08T06:49:35.562Z,61.00
2019-06-08T06:50:39.852Z,60.51
2019-06-08T06:51:44.386Z,60.25
2019-06-08T06:52:48.985Z,59.45
2019-06-08T06:53:53.315Z,59.38
2019-06-08T06:54:57.668Z,58.28
2019-06-08T06:56:01.298Z,57.80
2019-06-08T06:57:05.593Z,58.21
2019-06-08T06:58:09.064Z,58.71
2019-06-08T06:59:14.293Z,58.32
2019-06-08T07:00:20.816Z,58.03
2019-06-08T07:01:25.053Z,57.73
2019-06-08T07:02:29.528Z,57.89
2019-06-08T07:03:33.760Z,57.83
2019-06-08T07:04:37.425Z,57.78
2019-06-08T07:05:41.637Z,56.93
2019-06-08T07:06:48.020Z,57.08
2019-06-08T07:07:52.477Z,56.68
2019-06-08T07:08:56.127Z,56.80
2019-06-08T07:10:00.354Z,56.34
2019-06-08T07:11:03.979Z,55.10
2019-06-08T07:12:08.205Z,56.09
2019-06-08T07:13:11.872Z,56.30
2019-06-08T07:14:16.079Z,57.28
2019-06-08T07:15:27.664Z,56.32
2019-06-08T07:16:31.878Z,56.05
2019-06-08T07:17:35.503Z,55.18
2019-06-08T07:18:39.700Z,54.83
2019-06-08T07:19:43.225Z,54.77
2019-06-08T07:20:48.124Z,54.06
2019-06-08T07:21:53.172Z,54.65
2019-06-08T07:22:59.023Z,54.19
2019-06-08T07:24:02.753Z,53.76
2019-06-08T07:25:07.888Z,53.54
2019-06-08T07:26:13.148Z,53.35
2019-06-08T07:27:17.372Z,52.28
2019-06-08T07:28:20.957Z,52.18
2019-06-08T07:29:25.190Z,52.69
2019-06-08T07:30:28.847Z,52.58
2019-06-08T07:31:33.087Z,52.49
2019-06-08T07:32:36.590Z,52.75
2019-06-08T07:33:41.126Z,52.16
2019-06-08T07:34:44.806Z,52.74
2019-06-08T07:35:49.970Z,53.08
2019-06-08T07:36:55.539Z,52.47
2019-06-08T07:37:59.917Z,52.18
2019-06-08T07:39:03.711Z,52.16
2019-06-08T07:40:09.464Z,52.13
2019-06-08T07:41:13.482Z,51.77
2019-06-08T07:42:17.634Z,50.71
2019-06-08T07:43:21.270Z,52.48
2019-06-08T07:44:25.497Z,51.76
2019-06-08T07:45:29.238Z,51.82
2019-06-08T07:46:33.471Z,52.08
2019-06-08T07:47:37.098Z,51.66
2019-06-08T07:48:41.354Z,51.55
2019-06-08T07:49:44.920Z,49.93
2019-06-08T07:50:50.261Z,49.80
2019-06-08T07:52:03.239Z,49.92
2019-06-08T07:52:59.719Z,49.76
2019-06-08T07:54:03.547Z,49.84
2019-06-08T07:55:07.855Z,49.07
2019-06-08T07:56:11.498Z,48.29
2019-06-08T07:57:15.708Z,48.00
2019-06-08T07:58:19.396Z,47.69
2019-06-08T07:59:23.465Z,46.66
2019-06-08T08:00:27.110Z,47.20
2019-06-08T08:01:36.056Z,46.24
2019-06-08T08:02:36.706Z,45.77
2019-06-08T08:03:40.953Z,45.05
2019-06-08T08:04:44.594Z,44.90
2019-06-08T08:05:48.733Z,46.97
2019-06-08T08:06:52.534Z,47.39
2019-06-08T08:07:56.944Z,46.09
2019-06-08T08:09:00.548Z,46.01
2019-06-08T08:10:07.646Z,44.76
2019-06-08T08:11:11.339Z,45.45
2019-06-08T08:12:15.504Z,45.49
2019-06-08T08:13:19.154Z,45.29
2019-06-08T08:14:23.272Z,44.78
2019-06-08T08:15:26.919Z,44.87
2019-06-08T08:16:30.993Z,45.00
2019-06-08T08:17:34.640Z,44.42
2019-06-08T08:18:38.850Z,43.58
2019-06-08T08:19:42.563Z,43.72
2019-06-08T08:20:46.771Z,43.83
2019-06-08T08:21:52.958Z,43.73
2019-06-08T08:23:02.172Z,43.31
2019-06-08T08:24:01.899Z,43.38
2019-06-08T08:25:08.215Z,42.73
2019-06-08T08:26:12.085Z,42.88
2019-06-08T08:27:17.899Z,42.54
2019-06-08T08:28:21.883Z,41.84
2019-06-08T08:29:28.246Z,42.13
2019-06-08T08:30:31.583Z,42.83
2019-06-08T08:31:37.413Z,40.88
2019-06-08T08:32:41.094Z,41.56
2019-06-08T08:33:45.337Z,40.36
2019-06-08T08:34:50.378Z,39.72
2019-06-08T08:35:55.576Z,41.03
2019-06-08T08:37:05.792Z,39.85
2019-06-08T08:38:07.611Z,40.30
2019-06-08T08:39:10.881Z,39.45
2019-06-08T08:40:15.060Z,39.59
2019-06-08T08:41:18.746Z,40.29
2019-06-08T08:42:22.950Z,40.31
2019-06-08T08:43:28.041Z,40.01
2019-06-08T08:44:32.465Z,40.35
2019-06-08T08:45:37.360Z,40.49
2019-06-08T08:46:41.802Z,40.13
2019-06-08T08:47:45.502Z,40.50
2019-06-08T08:48:50.949Z,40.30
2019-06-08T08:49:56.761Z,39.53
2019-06-08T08:51:03.524Z,39.85
2019-06-08T08:52:08.814Z,40.37
2019-06-08T08:53:17.888Z,40.34
2019-06-08T08:54:18.626Z,40.36
2019-06-08T08:55:27.943Z,40.55
2019-06-08T08:56:31.452Z,40.78
2019-06-08T08:57:38.582Z,40.12
2019-06-08T08:58:43.860Z,41.23
2019-06-08T08:59:51.835Z,40.79
2019-06-08T09:00:54.103Z,40.91
2019-06-08T09:02:01.596Z,40.35
2019-06-08T09:03:24.006Z,39.70
2019-06-08T09:04:14.233Z,40.41
2019-06-08T09:05:18.227Z,43.51
2019-06-08T09:06:23.843Z,40.42
2019-06-08T09:07:27.871Z,40.73
2019-06-08T09:08:32.036Z,38.62
2019-06-08T09:09:38.426Z,40.05
2019-06-08T09:10:41.649Z,40.99
2019-06-08T09:11:48.106Z,39.32
2019-06-08T09:12:52.246Z,38.85
2019-06-08T09:14:05.141Z,38.83
2019-06-08T09:15:05.168Z,39.66
2019-06-08T09:16:08.794Z,39.48
2019-06-08T09:17:12.934Z,38.34
2019-06-08T09:18:18.622Z,37.61
2019-06-08T09:19:22.556Z,37.70
2019-06-08T09:20:28.587Z,37.32
2019-06-08T09:21:32.057Z,37.16
2019-06-08T09:22:50.244Z,38.97
2019-06-08T09:23:44.597Z,39.26
2019-06-08T09:24:48.665Z,37.21
2019-06-08T09:26:01.355Z,37.09
2019-06-08T09:27:04.015Z,37.50
2019-06-08T09:28:09.366Z,37.01
2019-06-08T09:29:12.992Z,36.21
2019-06-08T09:30:18.236Z,36.83
2019-06-08T09:31:22.181Z,38.32
2019-06-08T09:32:28.192Z,37.42
2019-06-08T09:35:04.796Z,36.53
2019-06-08T09:36:08.582Z,35.96
2019-06-08T09:37:12.829Z,36.90
2019-06-08T09:38:18.535Z,37.46
2019-06-08T09:39:22.356Z,36.06
2019-06-08T09:40:28.433Z,36.07
2019-06-08T09:41:31.917Z,37.66
2019-06-08T09:42:35.562Z,37.25
2019-06-08T09:43:39.790Z,38.21
2019-06-08T09:44:43.403Z,37.16
2019-06-08T09:45:48.345Z,37.86
2019-06-08T09:46:53.572Z,37.64
2019-06-08T09:48:01.825Z,37.23
2019-06-08T09:49:06.502Z,39.31
2019-06-08T09:50:09.992Z,38.97
2019-06-08T09:51:13.539Z,37.95
2019-06-08T09:52:18.387Z,38.39
2019-06-08T09:53:31.916Z,36.57
2019-06-08T09:54:29.479Z,35.77
2019-06-08T09:55:33.101Z,36.49
2019-06-08T09:56:37.958Z,35.39
2019-06-08T09:57:41.622Z,34.12
2019-06-08T09:58:45.796Z,34.92
2019-06-08T09:59:49.347Z,34.27
2019-06-08T10:00:55.075Z,34.77
2019-06-08T10:02:05.074Z,34.64
2019-06-08T10:03:07.162Z,34.68
2019-06-08T10:04:10.927Z,34.49
2019-06-08T10:05:18.301Z,34.62
2019-06-08T10:06:21.367Z,35.40
2019-06-08T10:07:25.442Z,34.84
2019-06-08T10:08:29.166Z,33.72
2019-06-08T10:09:33.342Z,34.71
2019-06-08T10:10:36.995Z,38.69
2019-06-08T10:11:41.173Z,36.09
2019-06-08T10:12:44.831Z,36.08
2019-06-08T10:13:49.006Z,33.95
2019-06-08T10:14:52.661Z,34.83
2019-06-08T10:16:00.013Z,35.02
2019-06-08T10:17:03.921Z,37.52
2019-06-08T10:18:08.308Z,31.62
2019-06-08T10:19:12.048Z,33.82
2019-06-08T10:20:18.488Z,33.14
2019-06-08T10:21:22.731Z,32.52
2019-06-08T10:22:28.283Z,32.41
2019-06-08T10:23:34.483Z,33.11
2019-06-08T10:24:38.776Z,32.61
2019-06-08T10:25:43.263Z,30.60
2019-06-08T10:26:47.855Z,32.42
2019-06-08T10:27:51.628Z,32.58
2019-06-08T10:28:58.686Z,32.26
2019-06-08T10:30:03.232Z,33.82
2019-06-08T10:31:07.425Z,33.41
2019-06-08T10:32:12.741Z,34.09
2019-06-08T10:33:18.410Z,34.37
2019-06-08T10:34:22.310Z,33.24
2019-06-08T10:35:28.359Z,32.55
2019-06-08T10:36:32.351Z,32.02
2019-06-08T10:37:38.413Z,31.14
2019-06-08T10:38:42.365Z,31.31
2019-06-08T10:39:47.843Z,30.43
2019-06-08T10:41:06.858Z,32.21
2019-06-08T10:42:09.808Z,30.72
2019-06-08T10:43:12.442Z,29.54
2019-06-08T10:44:18.307Z,29.65
2019-06-08T10:45:22.295Z,29.43
2019-06-08T10:46:26.519Z,29.29
2019-06-08T10:47:30.514Z,30.34
2019-06-08T10:48:37.493Z,29.00
2019-06-08T10:49:40.484Z,28.28
2019-06-08T10:50:44.607Z,27.90
2019-06-08T10:51:48.891Z,29.38
2019-06-08T10:52:53.328Z,30.68
2019-06-08T10:53:57.977Z,30.25
2019-06-08T10:55:04.857Z,32.28
2019-06-08T10:56:10.416Z,29.99
2019-06-08T10:57:13.643Z,31.09
2019-06-08T10:58:19.490Z,32.20
2019-06-08T10:59:23.796Z,28.91
2019-06-08T11:00:28.234Z,29.33
2019-06-08T11:01:32.678Z,29.83
2019-06-08T11:02:37.573Z,30.85
2019-06-08T11:03:42.264Z,29.49
2019-06-08T11:04:48.310Z,30.05
2019-06-08T11:05:51.877Z,30.51
2019-06-08T11:06:58.035Z,28.57
2019-06-08T11:08:02.922Z,30.43
2019-06-08T11:09:12.610Z,29.03
2019-06-08T11:10:13.559Z,32.39
2019-06-08T11:11:19.825Z,30.46
2019-06-08T11:12:23.458Z,30.76
2019-06-08T11:13:28.309Z,29.35
2019-06-08T11:14:32.723Z,29.87
2019-06-08T11:15:37.834Z,30.12
2019-06-08T11:16:42.339Z,32.60
2019-06-08T11:17:45.915Z,30.14
2019-06-08T11:18:51.133Z,29.76
2019-06-08T11:19:54.804Z,31.17
2019-06-08T11:21:00.511Z,32.32
2019-06-08T11:22:07.707Z,30.81
2019-06-08T11:23:12.334Z,31.63
2019-06-08T11:24:23.502Z,30.36
2019-06-08T11:25:21.661Z,29.23
2019-06-08T11:26:28.916Z,29.53
2019-06-08T11:27:33.314Z,30.35
2019-06-08T11:28:38.288Z,29.36
2019-06-08T11:29:42.612Z,29.55
2019-06-08T11:30:48.060Z,31.08
2019-06-08T11:31:52.113Z,29.63
2019-06-08T11:32:57.709Z,30.27
2019-06-08T11:34:06.166Z,29.79
2019-06-08T11:35:12.337Z,29.92
2019-06-08T11:36:18.603Z,29.02
2019-06-08T11:37:21.547Z,28.91
2019-06-08T11:38:28.705Z,28.41
2019-06-08T11:39:30.985Z,29.47
2019-06-08T11:40:37.782Z,28.84
2019-06-08T11:41:40.689Z,30.76
2019-06-08T11:42:45.486Z,28.88
2019-06-08T11:43:49.142Z,28.63
2019-06-08T11:44:53.587Z,29.80
2019-06-08T11:45:58.409Z,28.30
2019-06-08T11:47:04.574Z,27.47
2019-06-08T11:48:08.763Z,29.50
2019-06-08T11:49:14.982Z,28.32
2019-06-08T11:50:24.494Z,28.99
2019-06-08T11:51:29.828Z,27.21
2019-06-08T11:52:33.601Z,28.26
2019-06-08T11:53:38.433Z,27.91
2019-06-08T11:54:42.244Z,28.09
2019-06-08T11:55:50.753Z,27.70
2019-06-08T11:56:53.909Z,27.56
2019-06-08T11:57:58.629Z,27.88
2019-06-08T11:59:03.347Z,28.11
2019-06-08T12:00:22.365Z,28.52
2019-06-08T12:01:18.364Z,28.43
2019-06-08T12:02:21.725Z,27.28
2019-06-08T12:03:27.671Z,28.72
2019-06-08T12:04:31.636Z,27.51
2019-06-08T12:05:35.261Z,27.13
2019-06-08T12:06:43.060Z,27.71
2019-06-08T12:07:48.039Z,28.63
2019-06-08T12:08:52.301Z,28.97
2019-06-08T12:09:57.905Z,28.30
2019-06-08T12:11:03.783Z,27.69
2019-06-08T12:12:12.283Z,28.66
2019-06-08T12:13:18.217Z,28.62
2019-06-08T12:14:22.037Z,27.46
2019-06-08T12:15:28.168Z,28.93
2019-06-08T12:16:31.664Z,28.72
2019-06-08T12:17:35.804Z,28.82
2019-06-08T12:18:40.394Z,28.10
2019-06-08T12:19:44.771Z,27.60
2019-06-08T12:20:48.957Z,28.20
2019-06-08T12:21:53.330Z,26.44
2019-06-08T12:22:56.889Z,26.43
2019-06-08T12:24:01.115Z,27.67
2019-06-08T12:25:08.029Z,26.73
2019-06-08T12:26:12.391Z,27.90
2019-06-08T12:27:29.184Z,26.22
2019-06-08T12:28:22.033Z,27.65
2019-06-08T12:29:25.603Z,27.67
2019-06-08T12:30:29.882Z,28.55
2019-06-08T12:31:33.436Z,31.95
2019-06-08T12:32:37.607Z,29.95
2019-06-08T12:33:41.192Z,29.33
2019-06-08T12:34:45.683Z,28.06
2019-06-08T12:35:49.355Z,27.33
2019-06-08T12:36:53.562Z,27.51
2019-06-08T12:37:58.098Z,27.23
2019-06-08T12:39:02.556Z,28.64
2019-06-08T12:40:09.739Z,28.49
2019-06-08T12:41:14.074Z,28.06
2019-06-08T12:42:24.250Z,27.45
2019-06-08T12:43:24.292Z,27.87
2019-06-08T12:44:29.133Z,27.15
2019-06-08T12:45:33.890Z,28.37
2019-06-08T12:46:38.374Z,28.17
2019-06-08T12:47:43.643Z,27.48
2019-06-08T12:48:47.199Z,27.24
2019-06-08T12:49:51.474Z,27.56
2019-06-08T12:50:55.099Z,28.30
2019-06-08T12:51:59.666Z,28.26
2019-06-08T12:53:03.349Z,30.36
2019-06-08T12:54:08.438Z,27.19
2019-06-08T12:55:18.337Z,29.09
2019-06-08T12:56:23.825Z,27.78
2019-06-08T12:57:24.561Z,27.77
2019-06-08T12:58:28.759Z,28.58
2019-06-08T12:59:32.331Z,28.42
2019-06-08T13:00:37.995Z,27.25
2019-06-08T13:01:41.749Z,28.67
2019-06-08T13:02:47.778Z,26.67
2019-06-08T13:03:52.405Z,28.72
2019-06-08T13:04:56.551Z,27.86
2019-06-08T13:06:00.263Z,26.77
2019-06-08T13:07:04.483Z,26.62
2019-06-08T13:08:10.057Z,28.26
2019-06-08T13:09:14.768Z,28.31
2019-06-08T13:10:23.903Z,26.87
2019-06-08T13:11:28.081Z,28.29
2019-06-08T13:12:31.252Z,28.05
2019-06-08T13:13:37.630Z,26.42
2019-06-08T13:14:41.019Z,26.67
2019-06-08T13:15:45.247Z,26.35
2019-06-08T13:16:52.001Z,26.79
2019-06-08T13:17:54.748Z,26.88
2019-06-08T13:18:58.796Z,26.85
2019-06-08T13:20:03.047Z,27.27
2019-06-08T13:21:22.223Z,27.23
2019-06-08T13:22:28.968Z,26.93
2019-06-08T13:23:34.739Z,27.65
2019-06-08T13:24:40.483Z,27.15
2019-06-08T13:25:48.487Z,26.40
2019-06-08T13:26:52.976Z,27.21
2019-06-08T13:27:58.295Z,26.96
2019-06-08T13:29:02.733Z,27.23
2019-06-08T13:30:07.526Z,27.79
2019-06-08T13:31:14.309Z,27.11
2019-06-08T13:32:18.977Z,26.90
2019-06-08T13:33:27.922Z,27.41
2019-06-08T13:34:30.975Z,28.24
2019-06-08T13:35:35.220Z,28.18
2019-06-08T13:36:42.211Z,28.27
2019-06-08T13:37:48.129Z,27.31
2019-06-08T13:38:52.150Z,26.09
2019-06-08T13:39:59.042Z,26.85
2019-06-08T13:41:01.896Z,26.64
2019-06-08T13:42:07.751Z,28.50
2019-06-08T13:43:11.546Z,27.44
2019-06-08T13:44:15.739Z,28.17
2019-06-08T13:45:21.655Z,26.27
2019-06-08T13:46:27.940Z,26.43
2019-06-08T13:47:31.137Z,27.12
2019-06-08T13:48:37.528Z,28.07
2019-06-08T13:49:40.958Z,27.45
2019-06-08T13:50:46.583Z,26.78
2019-06-08T13:51:51.153Z,27.59
2019-06-08T13:52:55.363Z,26.95
2019-06-08T13:53:59.044Z,27.71
2019-06-08T13:55:03.406Z,28.05